Time;durP1;ratioP1;P1;durP2;ratioP2;P2;SDS_P1;SDS_P2;PMS_P1;PMS_P2;Temp;Humidity;BMP_temperature;BMP_pressure;BME280_temperature;BME280_humidity;BME280_pressure;Samples;Min_cycle;Max_cycle;Signal;HPM_P1;HPM_P2
2023/07/12 00:01:36;;;;;;;17.87;16.60;;;25.80;99.90;;;;;;5062938;28;20527;-54
2023/07/12 00:04:02;;;;;;;18.00;16.90;;;25.90;99.90;;;;;;5081329;28;20929;-48
2023/07/12 00:06:37;;;;;;;18.40;17.20;;;25.80;99.90;;;;;;5065734;28;20818;-53
2023/07/12 00:09:10;;;;;;;17.87;16.77;;;25.90;99.90;;;;;;5068894;28;20192;-50
2023/07/12 00:11:36;;;;;;;18.77;17.37;;;25.80;99.90;;;;;;5081715;28;20479;-50
2023/07/12 00:14:02;;;;;;;18.97;17.77;;;25.90;99.90;;;;;;5075733;28;20536;-56
2023/07/12 00:16:33;;;;;;;17.97;16.87;;;25.90;99.90;;;;;;5072885;28;20414;-51
2023/07/12 00:18:59;;;;;;;18.50;17.40;;;25.90;99.90;;;;;;5075418;28;20185;-55
2023/07/12 00:21:26;;;;;;;18.17;17.07;;;25.90;99.90;;;;;;5072509;28;20850;-53
2023/07/12 00:23:53;;;;;;;18.10;16.90;;;25.90;99.90;;;;;;5081393;28;20562;-53
2023/07/12 00:26:28;;;;;;;17.90;16.80;;;25.90;99.90;;;;;;5081410;28;20438;-49
2023/07/12 00:28:58;;;;;;;18.57;17.27;;;25.80;99.90;;;;;;5081524;28;20425;-55
2023/07/12 00:31:24;;;;;;;18.03;16.93;;;25.80;99.90;;;;;;5079902;28;20438;-55
2023/07/12 00:33:51;;;;;;;19.27;18.00;;;25.90;99.90;;;;;;5075053;28;21021;-51
2023/07/12 00:36:22;;;;;;;18.50;17.20;;;25.90;99.90;;;;;;5074261;28;20470;-46
2023/07/12 00:38:48;;;;;;;19.67;18.37;;;25.90;99.90;;;;;;5078875;28;20855;-49
2023/07/12 00:41:27;;;;;;;18.47;17.27;;;25.90;99.90;;;;;;5080920;28;20814;-49
2023/07/12 00:43:59;;;;;;;18.10;17.00;;;25.90;99.90;;;;;;5070756;28;20415;-54
2023/07/12 00:46:36;;;;;;;18.03;16.93;;;25.80;99.90;;;;;;5075979;28;20867;-51
2023/07/12 00:49:02;;;;;;;18.80;17.50;;;25.90;99.90;;;;;;5073991;28;20435;-49
2023/07/12 00:51:32;;;;;;;18.23;17.03;;;25.90;99.90;;;;;;5077492;28;21316;-55
2023/07/12 00:53:58;;;;;;;18.80;17.60;;;25.80;99.90;;;;;;5061554;28;20991;-54
2023/07/12 00:56:25;;;;;;;19.40;18.10;;;25.90;99.90;;;;;;5071483;28;20471;-52
2023/07/12 00:58:57;;;;;;;18.10;16.90;;;25.90;99.90;;;;;;5077916;28;20430;-53
2023/07/12 01:01:26;;;;;;;19.57;18.37;;;25.90;99.90;;;;;;5080952;28;20493;-51
2023/07/12 01:03:53;;;;;;;19.23;17.97;;;25.90;99.90;;;;;;5080612;28;20418;-48
2023/07/12 01:06:21;;;;;;;18.77;17.40;;;25.90;99.90;;;;;;5080415;28;20465;-54
2023/07/12 01:08:46;;;;;;;18.63;17.43;;;25.90;99.90;;;;;;5080996;28;20505;-49
2023/07/12 01:11:15;;;;;;;17.90;16.80;;;25.90;99.90;;;;;;5080797;28;20495;-55
2023/07/12 01:13:43;;;;;;;18.17;16.97;;;25.90;99.90;;;;;;5065751;28;20191;-54
2023/07/12 01:16:12;;;;;;;19.20;17.90;;;25.80;99.90;;;;;;5062880;28;20794;-51
2023/07/12 01:18:38;;;;;;;18.60;17.40;;;25.80;99.90;;;;;;5063664;28;20999;-53
2023/07/12 01:21:24;;;;;;;18.90;17.67;;;25.80;99.90;;;;;;5063989;28;20438;-53
2023/07/12 01:23:49;;;;;;;18.63;17.43;;;25.80;99.90;;;;;;5065603;28;20184;-52
2023/07/12 01:26:21;;;;;;;19.70;18.40;;;25.80;99.90;;;;;;5071859;28;21211;-52
2023/07/12 01:28:50;;;;;;;18.30;17.20;;;25.80;99.90;;;;;;5075030;28;20632;-54
2023/07/12 01:31:17;;;;;;;19.13;17.93;;;25.80;99.90;;;;;;5075026;28;20460;-50
2023/07/12 01:33:43;;;;;;;19.40;17.80;;;25.80;99.90;;;;;;5079312;28;20415;-53
2023/07/12 01:36:08;;;;;;;19.23;17.97;;;25.80;99.90;;;;;;5077963;28;20866;-50
2023/07/12 01:38:34;;;;;;;19.60;18.20;;;25.90;99.90;;;;;;5078909;28;20423;-53
2023/07/12 01:41:00;;;;;;;19.30;18.10;;;25.80;99.90;;;;;;5080440;28;20189;-51
2023/07/12 01:43:26;;;;;;;18.67;17.50;;;25.70;99.90;;;;;;5074201;28;20184;-54
2023/07/12 01:45:51;;;;;;;17.90;16.80;;;25.60;99.90;;;;;;5078717;28;20864;-55
2023/07/12 01:48:17;;;;;;;18.90;17.50;;;25.70;99.90;;;;;;5079520;28;20197;-59
2023/07/12 01:50:42;;;;;;;19.20;17.93;;;25.60;99.90;;;;;;5071564;28;20185;-47
2023/07/12 01:53:09;;;;;;;19.10;17.90;;;25.60;99.90;;;;;;5062664;28;20189;-53
2023/07/12 01:55:35;;;;;;;19.50;18.10;;;25.60;99.90;;;;;;5066747;28;20613;-50
2023/07/12 01:58:01;;;;;;;19.00;17.70;;;25.60;99.90;;;;;;5064267;28;20475;-55
2023/07/12 02:00:26;;;;;;;20.10;18.80;;;25.60;99.90;;;;;;5079377;28;20184;-51
2023/07/12 02:02:52;;;;;;;19.10;17.90;;;25.60;99.90;;;;;;5079799;28;20466;-50
2023/07/12 02:05:21;;;;;;;19.27;17.97;;;25.50;99.90;;;;;;5073764;28;20711;-55
2023/07/12 02:07:48;;;;;;;19.03;17.63;;;25.60;99.90;;;;;;5068550;28;20561;-53
2023/07/12 02:10:16;;;;;;;18.73;17.43;;;25.50;99.90;;;;;;5079352;28;20425;-55
2023/07/12 02:12:42;;;;;;;18.43;17.13;;;25.50;99.90;;;;;;5066379;28;20435;-50
2023/07/12 02:15:09;;;;;;;18.63;17.33;;;25.50;99.90;;;;;;5069846;28;20917;-51
2023/07/12 02:17:35;;;;;;;19.57;17.93;;;25.50;99.90;;;;;;5079061;28;20506;-49
2023/07/12 02:20:00;;;;;;;18.83;17.43;;;25.60;99.90;;;;;;5070793;28;20551;-55
2023/07/12 02:22:29;;;;;;;19.27;17.90;;;25.50;99.90;;;;;;5078219;28;20213;-50
2023/07/12 02:24:55;;;;;;;19.23;17.93;;;25.60;99.90;;;;;;5068561;28;20224;-57
2023/07/12 02:27:21;;;;;;;19.73;18.43;;;25.60;99.90;;;;;;5078366;28;20777;-56
2023/07/12 02:29:46;;;;;;;20.30;18.90;;;25.60;99.90;;;;;;5071016;28;20512;-58
2023/07/12 02:32:12;;;;;;;19.30;17.90;;;25.60;99.90;;;;;;5066552;28;20200;-47
2023/07/12 02:34:38;;;;;;;18.80;17.50;;;25.60;99.90;;;;;;5073370;28;20543;-51
2023/07/12 02:37:03;;;;;;;19.53;18.23;;;25.60;99.90;;;;;;5078764;28;20286;-51
2023/07/12 02:39:29;;;;;;;19.50;18.20;;;25.60;99.90;;;;;;5071777;28;20177;-54
2023/07/12 02:41:54;;;;;;;18.43;17.23;;;25.60;99.90;;;;;;5064925;28;20189;-53
2023/07/12 02:44:21;;;;;;;19.23;17.90;;;25.60;99.90;;;;;;5065548;28;20249;-49
2023/07/12 02:46:47;;;;;;;19.63;18.33;;;25.60;99.90;;;;;;5075028;28;20209;-47
2023/07/12 02:49:13;;;;;;;19.33;18.03;;;25.60;99.90;;;;;;5073251;28;20442;-48
2023/07/12 02:51:39;;;;;;;18.07;16.97;;;25.50;99.90;;;;;;5073934;28;20215;-53
2023/07/12 02:54:04;;;;;;;20.07;18.77;;;25.50;99.90;;;;;;5071608;28;20432;-57
2023/07/12 02:56:30;;;;;;;18.70;17.50;;;25.50;99.90;;;;;;5076153;28;20244;-53
2023/07/12 02:58:55;;;;;;;18.53;17.33;;;25.50;99.90;;;;;;5082589;28;20180;-52
2023/07/12 03:01:21;;;;;;;18.57;17.30;;;25.50;99.90;;;;;;5074677;28;20228;-49
2023/07/12 03:03:47;;;;;;;18.30;17.20;;;25.50;99.90;;;;;;5079932;28;20192;-49
2023/07/12 03:06:12;;;;;;;19.23;17.90;;;25.50;99.90;;;;;;5081426;28;20666;-51
2023/07/12 03:08:38;;;;;;;18.90;17.50;;;25.50;99.90;;;;;;5080008;28;20199;-57
2023/07/12 03:11:07;;;;;;;19.10;17.80;;;25.50;99.90;;;;;;5065519;28;20180;-47
2023/07/12 03:13:33;;;;;;;19.37;18.07;;;25.40;99.90;;;;;;5066196;28;20956;-46
2023/07/12 03:16:02;;;;;;;18.30;17.00;;;25.40;99.90;;;;;;5082513;28;20428;-52
2023/07/12 03:18:27;;;;;;;19.53;18.10;;;25.30;99.90;;;;;;5082716;28;20602;-53
2023/07/12 03:20:59;;;;;;;19.30;18.03;;;25.20;99.90;;;;;;5077682;28;20480;-49
2023/07/12 03:23:24;;;;;;;17.93;16.73;;;25.20;99.90;;;;;;5078567;28;20267;-58
2023/07/12 03:25:50;;;;;;;18.80;17.60;;;25.10;99.90;;;;;;5073968;28;20466;-54
2023/07/12 03:28:16;;;;;;;19.47;18.07;;;25.10;99.90;;;;;;5082472;28;20169;-51
2023/07/12 03:30:41;;;;;;;18.40;17.20;;;25.10;99.90;;;;;;5075795;28;20580;-51
2023/07/12 03:33:07;;;;;;;18.50;17.27;;;25.10;99.90;;;;;;5068236;28;20403;-52
2023/07/12 03:35:33;;;;;;;19.37;18.07;;;25.00;99.90;;;;;;5073173;28;20207;-51
2023/07/12 03:37:58;;;;;;;18.10;16.90;;;24.90;99.90;;;;;;5076805;28;20637;-55
2023/07/12 03:40:24;;;;;;;18.50;17.10;;;24.80;99.90;;;;;;5073028;28;20192;-54
2023/07/12 03:42:49;;;;;;;17.73;16.63;;;24.80;99.90;;;;;;5078328;28;20544;-50
2023/07/12 03:45:15;;;;;;;19.37;17.97;;;24.90;99.90;;;;;;5082377;28;20601;-55
2023/07/12 03:47:41;;;;;;;18.83;17.53;;;24.80;99.90;;;;;;5075569;28;20501;-49
2023/07/12 03:50:07;;;;;;;19.67;18.30;;;24.80;99.90;;;;;;5076853;28;20695;-57
2023/07/12 03:52:32;;;;;;;18.87;17.57;;;24.90;99.90;;;;;;5082523;28;20291;-53
2023/07/12 03:54:58;;;;;;;18.70;17.30;;;24.90;99.90;;;;;;5063210;28;20189;-53
2023/07/12 03:57:23;;;;;;;18.00;16.90;;;24.80;99.90;;;;;;5075466;28;20769;-53
2023/07/12 03:59:49;;;;;;;17.27;16.00;;;24.80;99.90;;;;;;5074006;28;20334;-54
2023/07/12 04:02:15;;;;;;;15.60;14.60;;;24.80;99.90;;;;;;5080258;28;20285;-48
2023/07/12 04:04:40;;;;;;;17.37;16.27;;;24.90;99.90;;;;;;5078991;28;20325;-47
2023/07/12 04:07:07;;;;;;;17.07;15.97;;;24.90;99.90;;;;;;5066174;28;20622;-47
2023/07/12 04:09:32;;;;;;;17.20;16.20;;;24.90;99.90;;;;;;5081506;28;20259;-49
2023/07/12 04:11:58;;;;;;;17.60;16.40;;;24.90;99.90;;;;;;5074699;28;20415;-49
2023/07/12 04:14:24;;;;;;;16.97;15.87;;;24.90;99.90;;;;;;5082008;28;20454;-46
2023/07/12 04:16:49;;;;;;;17.17;16.03;;;24.90;99.90;;;;;;5081411;28;20208;-47
2023/07/12 04:19:15;;;;;;;17.60;16.50;;;24.90;99.90;;;;;;5078725;28;20671;-47
2023/07/12 04:21:41;;;;;;;18.40;17.20;;;24.90;99.90;;;;;;5081068;28;20279;-54
2023/07/12 04:24:06;;;;;;;17.60;16.40;;;25.00;99.90;;;;;;5073002;28;20263;-52
2023/07/12 04:26:32;;;;;;;17.47;16.27;;;24.90;99.90;;;;;;5073937;28;20842;-48
2023/07/12 04:28:58;;;;;;;18.03;16.63;;;25.00;99.90;;;;;;5076374;28;20263;-47
2023/07/12 04:31:24;;;;;;;17.77;16.57;;;24.90;99.90;;;;;;5081409;28;20415;-46
2023/07/12 04:33:49;;;;;;;17.03;15.87;;;25.00;99.90;;;;;;5081674;28;20542;-45
2023/07/12 04:36:17;;;;;;;17.47;16.27;;;24.90;99.90;;;;;;5068340;28;20215;-47
2023/07/12 04:38:43;;;;;;;16.70;15.63;;;25.00;99.90;;;;;;5062633;28;20616;-45
2023/07/12 04:41:09;;;;;;;17.50;16.27;;;24.90;99.90;;;;;;5066891;28;20571;-45
2023/07/12 04:43:34;;;;;;;18.23;17.10;;;24.90;99.90;;;;;;5080458;28;20426;-45
2023/07/12 04:46:00;;;;;;;17.10;16.00;;;24.80;99.90;;;;;;5077399;28;20298;-45
2023/07/12 04:48:26;;;;;;;17.57;16.43;;;24.80;99.90;;;;;;5081012;28;20173;-44
2023/07/12 04:50:53;;;;;;;17.47;16.37;;;24.80;99.90;;;;;;5080882;28;20227;-45
2023/07/12 04:53:20;;;;;;;17.10;15.90;;;24.80;99.90;;;;;;5076447;28;20422;-47
2023/07/12 04:55:46;;;;;;;16.07;15.07;;;24.90;99.90;;;;;;5064730;28;20419;-47
2023/07/12 04:58:13;;;;;;;17.17;15.93;;;24.90;99.90;;;;;;5072184;28;20868;-47
2023/07/12 05:00:39;;;;;;;18.20;17.00;;;25.00;99.90;;;;;;5075766;28;20484;-45
2023/07/12 05:03:05;;;;;;;16.50;15.40;;;25.00;99.90;;;;;;5072636;28;20796;-42
2023/07/12 05:05:30;;;;;;;16.20;15.13;;;24.90;99.90;;;;;;5074765;28;20435;-45
2023/07/12 05:07:56;;;;;;;16.47;15.30;;;25.00;99.90;;;;;;5060837;28;20439;-44
2023/07/12 05:10:22;;;;;;;17.03;15.90;;;25.00;99.90;;;;;;5071292;28;20339;-43
2023/07/12 05:12:48;;;;;;;18.00;16.80;;;25.00;99.90;;;;;;5068859;28;20193;-45
2023/07/12 05:15:16;;;;;;;17.17;15.97;;;25.10;99.90;;;;;;5068200;28;21001;-48
2023/07/12 05:17:42;;;;;;;16.40;15.30;;;25.20;99.90;;;;;;5080079;28;20207;-45
2023/07/12 05:20:12;;;;;;;17.43;16.27;;;25.30;99.90;;;;;;5072695;28;20438;-47
2023/07/12 05:22:38;;;;;;;17.97;16.77;;;25.40;99.90;;;;;;5080444;28;20272;-50
2023/07/12 05:25:04;;;;;;;16.57;15.53;;;25.40;99.90;;;;;;5080007;28;21066;-52
2023/07/12 05:27:30;;;;;;;17.60;16.50;;;25.40;99.90;;;;;;5080081;28;20426;-50
2023/07/12 05:29:56;;;;;;;16.90;15.80;;;25.40;99.90;;;;;;5080721;28;20426;-50
2023/07/12 05:32:21;;;;;;;17.13;16.03;;;25.30;99.90;;;;;;5079989;28;20219;-47
2023/07/12 05:34:47;;;;;;;16.60;15.60;;;25.40;99.90;;;;;;5076309;28;20288;-51
2023/07/12 05:37:13;;;;;;;16.60;15.50;;;25.40;99.90;;;;;;5074377;28;20204;-53
2023/07/12 05:39:38;;;;;;;18.33;16.80;;;25.40;99.90;;;;;;5071312;28;20651;-46
2023/07/12 05:42:04;;;;;;;17.53;16.30;;;25.40;99.90;;;;;;5079301;28;20204;-54
2023/07/12 05:44:30;;;;;;;16.20;15.20;;;25.50;99.90;;;;;;5079893;28;20225;-47
2023/07/12 05:46:56;;;;;;;17.50;16.30;;;25.50;99.90;;;;;;5080031;28;20410;-55
2023/07/12 05:49:22;;;;;;;17.00;15.90;;;25.50;99.90;;;;;;5079866;28;20681;-53
2023/07/12 05:51:48;;;;;;;15.77;14.87;;;25.50;99.90;;;;;;5079756;28;20407;-50
2023/07/12 05:54:15;;;;;;;16.47;15.47;;;25.60;99.90;;;;;;5069363;28;20189;-50
2023/07/12 05:56:41;;;;;;;15.80;14.90;;;25.60;99.90;;;;;;5072332;28;20505;-47
2023/07/12 05:59:06;;;;;;;15.10;14.20;;;25.60;99.90;;;;;;5079890;28;20542;-56
2023/07/12 06:01:32;;;;;;;15.43;14.50;;;25.60;99.90;;;;;;5077138;28;20283;-50
2023/07/12 06:03:57;;;;;;;15.30;14.30;;;25.80;99.90;;;;;;5078685;28;20187;-51
2023/07/12 06:06:23;;;;;;;14.67;13.67;;;25.80;99.90;;;;;;5068112;28;20185;-53
2023/07/12 06:08:49;;;;;;;17.20;15.87;;;25.80;99.90;;;;;;5078721;28;20291;-54
2023/07/12 06:11:15;;;;;;;16.10;15.10;;;25.80;99.90;;;;;;5070984;28;20665;-51
2023/07/12 06:13:40;;;;;;;15.37;14.37;;;25.80;99.90;;;;;;5079302;28;20417;-52
2023/07/12 06:16:06;;;;;;;14.90;13.80;;;25.90;99.90;;;;;;5079726;28;20207;-52
2023/07/12 06:18:32;;;;;;;14.33;13.50;;;26.00;99.90;;;;;;5079483;28;20172;-57
2023/07/12 06:21:00;;;;;;;15.90;15.00;;;25.90;99.90;;;;;;5079483;28;20582;-54
2023/07/12 06:23:27;;;;;;;15.83;14.93;;;25.90;99.90;;;;;;5078913;28;20180;-48
2023/07/12 06:25:57;;;;;;;16.20;14.80;;;26.00;99.90;;;;;;5078677;28;20467;-52
2023/07/12 06:28:23;;;;;;;15.80;14.80;;;25.90;99.90;;;;;;5079255;28;20576;-51
2023/07/12 06:30:49;;;;;;;16.27;15.23;;;26.00;99.90;;;;;;5079265;28;20426;-51
2023/07/12 06:33:14;;;;;;;15.87;14.97;;;26.00;99.90;;;;;;5080043;28;20195;-51
2023/07/12 06:35:40;;;;;;;16.07;15.00;;;26.20;99.90;;;;;;5070777;28;20216;-51
2023/07/12 06:38:06;;;;;;;14.67;13.87;;;26.30;99.90;;;;;;5066777;28;20209;-51
2023/07/12 06:40:31;;;;;;;15.47;14.43;;;26.50;99.90;;;;;;5079582;28;20177;-48
2023/07/12 06:42:57;;;;;;;15.70;14.90;;;26.60;99.90;;;;;;5078751;28;20473;-54
2023/07/12 06:45:23;;;;;;;15.90;15.00;;;26.70;99.90;;;;;;5076281;28;20176;-50
2023/07/12 06:47:49;;;;;;;15.80;14.90;;;26.80;99.90;;;;;;5063996;28;20471;-52
2023/07/12 06:50:15;;;;;;;14.40;13.33;;;27.00;99.90;;;;;;5067089;28;20414;-47
2023/07/12 06:52:41;;;;;;;15.00;14.17;;;27.20;99.90;;;;;;5076763;28;20856;-51
2023/07/12 06:55:07;;;;;;;13.80;13.10;;;27.40;99.90;;;;;;5059739;28;20216;-49
2023/07/12 06:57:34;;;;;;;14.50;13.70;;;27.50;99.90;;;;;;5078525;28;20200;-47
2023/07/12 07:00:06;;;;;;;15.40;14.50;;;27.60;99.90;;;;;;5078964;28;20585;-50
2023/07/12 07:02:32;;;;;;;14.53;13.73;;;27.70;99.90;;;;;;5078846;28;20426;-49
2023/07/12 07:04:58;;;;;;;14.00;13.10;;;27.70;99.90;;;;;;5071842;28;20457;-52
2023/07/12 07:07:23;;;;;;;14.30;13.60;;;27.60;99.90;;;;;;5078655;28;20897;-52
2023/07/12 07:09:49;;;;;;;14.17;13.47;;;27.70;99.90;;;;;;5079348;28;20582;-51
2023/07/12 07:12:15;;;;;;;12.67;12.03;;;27.80;99.90;;;;;;5078669;28;20343;-54
2023/07/12 07:14:41;;;;;;;13.47;12.77;;;28.00;99.90;;;;;;5078818;28;20184;-52
2023/07/12 07:17:08;;;;;;;13.40;12.63;;;28.00;99.90;;;;;;5077818;28;20212;-50
2023/07/12 07:19:34;;;;;;;11.93;11.40;;;28.10;99.90;;;;;;5078484;28;20184;-52
2023/07/12 07:22:00;;;;;;;11.07;10.57;;;28.10;99.90;;;;;;5075813;28;20431;-53
2023/07/12 07:24:26;;;;;;;11.20;10.70;;;28.10;99.90;;;;;;5063607;28;20235;-55
2023/07/12 07:26:51;;;;;;;11.03;10.53;;;28.00;99.90;;;;;;5078603;28;20173;-52
2023/07/12 07:29:17;;;;;;;11.50;11.00;;;28.10;99.90;;;;;;5079056;28;20618;-52
2023/07/12 07:31:43;;;;;;;10.40;9.90;;;28.20;99.90;;;;;;5065771;28;20242;-52
2023/07/12 07:34:08;;;;;;;10.30;9.90;;;28.20;99.90;;;;;;5079167;28;20605;-53
2023/07/12 07:36:34;;;;;;;10.80;10.30;;;28.10;99.90;;;;;;5078705;28;20203;-47
2023/07/12 07:39:00;;;;;;;10.60;10.20;;;28.10;99.90;;;;;;5067108;28;20173;-48
2023/07/12 07:41:26;;;;;;;11.30;10.80;;;28.10;99.90;;;;;;5078099;28;20428;-58
2023/07/12 07:43:51;;;;;;;11.10;10.60;;;28.10;99.90;;;;;;5082271;28;20176;-53
2023/07/12 07:46:17;;;;;;;11.57;10.87;;;28.10;99.90;;;;;;5082709;28;20188;-53
2023/07/12 07:48:43;;;;;;;11.37;10.87;;;28.00;99.90;;;;;;5082033;28;20435;-52
2023/07/12 07:51:09;;;;;;;11.50;11.00;;;28.00;99.90;;;;;;5082535;28;20241;-50
2023/07/12 07:53:35;;;;;;;10.80;10.30;;;28.00;99.90;;;;;;5069541;28;20181;-51
2023/07/12 07:56:00;;;;;;;10.30;9.90;;;27.80;99.90;;;;;;5061196;28;20959;-52
2023/07/12 07:58:26;;;;;;;10.80;10.27;;;27.60;99.90;;;;;;5062134;28;20257;-53
2023/07/12 08:00:52;;;;;;;9.90;9.50;;;27.50;99.90;;;;;;5072089;28;20638;-56
2023/07/12 08:03:18;;;;;;;10.00;9.50;;;27.50;99.90;;;;;;5061317;28;20282;-50
2023/07/12 08:05:45;;;;;;;10.47;9.97;;;27.50;99.90;;;;;;5071870;28;20503;-53
2023/07/12 08:08:11;;;;;;;9.90;9.50;;;27.60;99.90;;;;;;5068531;28;20419;-46
2023/07/12 08:10:37;;;;;;;10.60;10.00;;;27.50;99.90;;;;;;5082163;28;20928;-49
2023/07/12 08:13:03;;;;;;;10.77;10.20;;;27.40;99.90;;;;;;5082024;28;20434;-55
2023/07/12 08:15:29;;;;;;;10.80;10.33;;;27.40;99.90;;;;;;5081868;28;20192;-48
2023/07/12 08:17:55;;;;;;;11.10;10.60;;;27.60;99.90;;;;;;5081738;28;20594;-50
2023/07/12 08:20:21;;;;;;;11.10;10.50;;;27.90;99.90;;;;;;5082080;28;20192;-54
2023/07/12 08:22:47;;;;;;;9.80;9.40;;;28.10;99.90;;;;;;5067229;28;20220;-51
2023/07/12 08:25:14;;;;;;;10.57;10.07;;;28.40;99.90;;;;;;5081460;28;20904;-50
2023/07/12 08:27:39;;;;;;;10.77;10.33;;;28.70;99.90;;;;;;5081511;28;20944;-49
2023/07/12 08:30:06;;;;;;;11.40;10.80;;;28.90;99.90;;;;;;5081604;28;20684;-46
2023/07/12 08:32:34;;;;;;;11.23;10.73;;;28.90;99.90;;;;;;5081276;28;20195;-51
2023/07/12 08:35:01;;;;;;;10.73;10.33;;;28.90;99.90;;;;;;5081090;28;20426;-56
2023/07/12 08:37:27;;;;;;;10.80;10.30;;;28.90;99.90;;;;;;5080912;28;20810;-54
2023/07/12 08:39:53;;;;;;;11.03;10.53;;;28.80;99.90;;;;;;5068731;28;20537;-51
2023/07/12 08:42:34;;;;;;;11.50;11.00;;;28.50;99.90;;;;;;5081306;28;21038;-56
2023/07/12 08:45:11;;;;;;;10.73;10.23;;;28.40;99.90;;;;;;5070448;28;20669;-51
2023/07/12 08:47:39;;;;;;;11.00;10.50;;;28.40;99.90;;;;;;5080880;28;20448;-55
2023/07/12 08:50:15;;;;;;;10.37;9.87;;;28.30;99.90;;;;;;5081631;28;20415;-50
2023/07/12 08:52:44;;;;;;;10.33;9.93;;;28.10;99.90;;;;;;5075255;28;20838;-49
2023/07/12 08:55:20;;;;;;;11.10;10.50;;;28.10;99.90;;;;;;5061292;28;20944;-56
2023/07/12 08:57:58;;;;;;;11.90;11.20;;;28.10;99.90;;;;;;5064666;28;20477;-49
2023/07/12 09:00:28;;;;;;;11.30;10.80;;;28.20;99.90;;;;;;5075402;28;20497;-49
2023/07/12 09:02:54;;;;;;;11.30;10.80;;;28.00;99.90;;;;;;5071160;28;20790;-53
2023/07/12 09:05:22;;;;;;;19.73;10.87;;;28.00;99.90;;;;;;5080816;28;20497;-52
2023/07/12 09:08:10;;;;;;;11.67;11.07;;;28.10;99.90;;;;;;5078601;28;20216;-53
2023/07/12 09:10:46;;;;;;;10.53;10.03;;;28.30;99.90;;;;;;5081069;28;20785;-52
2023/07/12 09:13:14;;;;;;;11.57;11.03;;;28.50;99.90;;;;;;5062606;28;20450;-54
2023/07/12 09:15:48;;;;;;;12.10;11.50;;;28.90;99.90;;;;;;5076772;28;20430;-52
2023/07/12 09:18:34;;;;;;;12.03;11.53;;;28.90;99.90;;;;;;5076784;28;20462;-52
2023/07/12 09:21:12;;;;;;;12.20;11.50;;;28.80;99.90;;;;;;5067550;28;20796;-52
2023/07/12 09:23:40;;;;;;;11.50;11.00;;;28.90;99.90;;;;;;5074175;28;20438;-54
2023/07/12 09:26:27;;;;;;;11.30;10.80;;;29.10;99.90;;;;;;5074315;28;20469;-52
2023/07/12 09:28:57;;;;;;;12.13;11.53;;;29.50;99.90;;;;;;5080397;28;20410;-53
2023/07/12 09:31:28;;;;;;;11.70;11.20;;;29.60;99.90;;;;;;5079712;28;20406;-50
2023/07/12 09:34:05;;;;;;;11.83;11.33;;;29.40;99.90;;;;;;5079903;28;20450;-50
2023/07/12 09:36:35;;;;;;;13.20;12.60;;;29.60;99.90;;;;;;5080511;28;20462;-54
2023/07/12 09:39:04;;;;;;;12.63;11.93;;;30.10;99.90;;;;;;5062641;28;20435;-54
2023/07/12 09:41:30;;;;;;;13.20;12.60;;;29.80;99.90;;;;;;5079680;28;20509;-54
2023/07/12 09:43:58;;;;;;;13.03;12.40;;;29.70;99.90;;;;;;5080010;28;20411;-54
2023/07/12 09:46:27;;;;;;;13.30;12.60;;;29.60;99.90;;;;;;5080125;28;20612;-50
2023/07/12 09:49:16;;;;;;;13.03;12.37;;;29.50;99.90;;;;;;5080606;28;20541;-52
2023/07/12 09:52:09;;;;;;;12.40;11.80;;;28.90;99.90;;;;;;5080257;28;20418;-54
2023/07/12 09:54:37;;;;;;;13.80;12.90;;;28.80;99.90;;;;;;5065572;28;20415;-53
2023/07/12 09:57:10;;;;;;;13.23;12.60;;;29.00;99.90;;;;;;5075530;28;20520;-52
2023/07/12 09:59:56;;;;;;;12.80;12.20;;;29.40;99.90;;;;;;5078903;28;20810;-51
2023/07/12 10:02:46;;;;;;;12.90;12.20;;;29.50;99.90;;;;;;5079493;28;20456;-51
2023/07/12 10:05:19;;;;;;;12.60;11.90;;;29.20;99.90;;;;;;5078827;28;20548;-52
2023/07/12 10:08:00;;;;;;;13.07;12.17;;;29.70;99.90;;;;;;5077953;28;20780;-48
2023/07/12 10:10:39;;;;;;;12.83;12.20;;;30.20;99.90;;;;;;5079375;28;20517;-50
2023/07/12 10:13:35;;;;;;;12.27;11.67;;;30.40;99.90;;;;;;5079999;28;21036;-52
2023/07/12 10:16:04;;;;;;;12.03;11.43;;;30.40;99.90;;;;;;5079719;28;20407;-49
2023/07/12 10:18:33;;;;;;;12.67;12.07;;;31.10;99.90;;;;;;5079501;28;20522;-53
2023/07/12 10:21:00;;;;;;;12.17;11.57;;;32.00;99.90;;;;;;5079470;28;20410;-53
2023/07/12 10:23:30;;;;;;;12.53;11.93;;;32.80;99.90;;;;;;5079488;28;20402;-53
2023/07/12 10:25:58;;;;;;;12.40;11.80;;;33.50;99.90;;;;;;5067448;28;20471;-49
2023/07/12 10:28:39;;;;;;;13.23;12.63;;;33.90;99.90;;;;;;5078481;28;20790;-52
2023/07/12 10:31:22;;;;;;;13.50;12.80;;;34.10;99.90;;;;;;5073539;28;20423;-53
2023/07/12 10:33:50;;;;;;;12.57;12.00;;;34.40;99.90;;;;;;5079251;28;20478;-49
2023/07/12 10:36:22;;;;;;;13.07;12.47;;;34.60;99.90;;;;;;5078738;28;20451;-53
2023/07/12 10:38:48;;;;;;;13.47;12.87;;;34.10;99.90;;;;;;5060798;28;20467;-52
2023/07/12 10:41:23;;;;;;;14.00;13.40;;;33.80;99.90;;;;;;5075916;28;20689;-52
2023/07/12 10:43:57;;;;;;;15.60;14.90;;;33.60;99.90;;;;;;5079121;28;20441;-55
2023/07/12 10:46:32;;;;;;;13.53;12.93;;;33.30;99.90;;;;;;5079189;28;20431;-52
2023/07/12 10:49:03;;;;;;;14.03;13.13;;;32.70;99.90;;;;;;5079155;28;20418;-51
2023/07/12 10:51:40;;;;;;;13.77;13.17;;;32.10;99.90;;;;;;5079440;28;20965;-56
2023/07/12 10:54:31;;;;;;;13.70;13.00;;;31.90;99.90;;;;;;5067863;28;20407;-51
2023/07/12 10:57:19;;;;;;;13.43;12.73;;;32.40;99.90;;;;;;5073188;28;20637;-53
2023/07/12 10:59:45;;;;;;;13.37;12.67;;;33.00;99.90;;;;;;5070045;28;20460;-51
2023/07/12 11:02:26;;;;;;;13.20;12.50;;;33.50;99.90;;;;;;5079301;28;20546;-51
2023/07/12 11:04:52;;;;;;;13.33;12.63;;;34.40;99.90;;;;;;5078973;28;20441;-53
2023/07/12 11:07:17;;;;;;;12.93;12.23;;;35.40;99.90;;;;;;5076186;28;21239;-54
2023/07/12 11:09:46;;;;;;;14.20;13.50;;;36.40;99.90;;;;;;5078875;28;20266;-51
2023/07/12 11:12:30;;;;;;;14.80;14.00;;;35.90;99.90;;;;;;5079007;28;20218;-53
2023/07/12 11:15:21;;;;;;;13.20;12.60;;;35.20;99.90;;;;;;5078538;28;20435;-51
2023/07/12 11:17:47;;;;;;;13.37;12.77;;;34.30;99.90;;;;;;5081865;28;20458;-51
2023/07/12 11:20:24;;;;;;;19.70;18.40;;;33.70;99.90;;;;;;5080091;28;20445;-46
2023/07/12 11:22:56;;;;;;;24.00;22.50;;;32.50;99.90;;;;;;5082510;28;20176;-46
2023/07/12 11:25:40;;;;;;;23.07;21.77;;;25.30;99.90;;;;;;5082418;28;20465;-44
2023/07/12 11:28:38;;;;;;;23.50;21.90;;;22.70;1.00;;;;;;5073181;28;20496;-52
2023/07/12 11:31:15;;;;;;;22.20;20.90;;;21.50;1.00;;;;;;5077905;28;20769;-43
2023/07/12 11:33:53;;;;;;;21.03;19.70;;;21.10;29.70;;;;;;5081966;28;20425;-45
2023/07/12 11:36:24;;;;;;;19.87;18.57;;;21.50;99.90;;;;;;5082374;28;20432;-51
2023/07/12 11:38:50;;;;;;;18.87;17.77;;;22.20;99.90;;;;;;5072395;28;20407;-45
2023/07/12 11:41:23;;;;;;;19.30;17.73;;;22.90;99.90;;;;;;5080756;28;20475;-47
2023/07/12 11:44:06;;;;;;;19.03;17.63;;;23.80;99.90;;;;;;5082387;28;20418;-45
2023/07/12 11:46:36;;;;;;;19.00;17.70;;;24.80;99.90;;;;;;5082326;28;20410;-44
2023/07/12 11:49:15;;;;;;;18.23;17.00;;;25.70;99.90;;;;;;5081691;28;20426;-46
2023/07/12 11:51:43;;;;;;;17.57;16.57;;;26.70;99.90;;;;;;5082054;28;20435;-50
2023/07/12 11:54:20;;;;;;;16.00;15.00;;;27.60;92.70;;;;;;5075943;28;20887;-46
2023/07/12 11:56:47;;;;;;;16.20;15.30;;;28.60;43.50;;;;;;5071426;28;20479;-45
2023/07/12 11:59:19;;;;;;;16.47;15.57;;;29.50;1.00;;;;;;5081462;28;20414;-44
2023/07/12 12:01:47;;;;;;;15.90;14.90;;;30.20;1.00;;;;;;5077467;28;20426;-48
2023/07/12 12:04:23;;;;;;;16.13;15.10;;;30.70;1.00;;;;;;5081350;28;20414;-48
2023/07/12 12:06:57;;;;;;;16.57;15.67;;;30.70;1.00;;;;;;5076380;28;20947;-50
2023/07/12 12:09:30;;;;;;;15.30;14.40;;;30.60;1.00;;;;;;5082258;28;20506;-45
2023/07/12 12:11:57;;;;;;;15.90;15.00;;;30.50;99.90;;;;;;5078693;28;20419;-50
2023/07/12 12:14:27;;;;;;;16.60;15.70;;;30.40;43.80;;;;;;5062046;28;20458;-53
2023/07/12 12:16:53;;;;;;;16.23;15.33;;;30.30;1.00;;;;;;5078913;28;20490;-51
2023/07/12 12:19:22;;;;;;;16.07;15.27;;;30.40;99.90;;;;;;5081942;28;20432;-51
2023/07/12 12:21:59;;;;;;;16.00;15.20;;;30.70;99.90;;;;;;5080615;28;20806;-53
2023/07/12 12:24:25;;;;;;;16.40;15.50;;;30.70;99.90;;;;;;5081331;28;21029;-47
2023/07/12 12:26:51;;;;;;;17.00;16.00;;;30.80;1.00;;;;;;5081772;28;20445;-53
2023/07/12 12:29:21;;;;;;;18.00;17.00;;;30.60;1.00;;;;;;5080836;28;20825;-48
2023/07/12 12:32:02;;;;;;;16.90;16.00;;;30.40;99.90;;;;;;5078959;28;20567;-47
2023/07/12 12:34:43;;;;;;;17.27;16.27;;;30.40;1.00;;;;;;5081912;28;20850;-54
2023/07/12 12:37:11;;;;;;;17.33;16.23;;;30.30;1.00;;;;;;5081235;28;20501;-55